Pacific Dawn — 2AGH7 — position and weather

sailwx.info

Track history (hours):
 
Tides and Currents Weather Stations Pressure Air Temp Water Temp Dewpoint Dewpoint Depression Visibility Wind Speed Wind Dir Waves Ship Positions

Pacific Dawn

Last reported at 2014-Nov-23 15:33 UTC. Time now 2014-Nov-26 05:11 UTC.
Position S 33°37' E 151°37'.

Length 245 m; draft 8.4 m.

Type: Passenger vessel. MMSI: 235059368.

Date/timePositionNaut miles runAvg speedWind from/ knotsBaromVisibWave heightAir tempDewpointWater temp
2014-Nov-23 15:33S 33°37' E 151°37'1717.5
2014-Nov-23 14:33S 33°24' E 151°51'1717.3
2014-Nov-23 13:33S 33°12' E 152°06'1817.9
2014-Nov-23 12:33S 32°58' E 152°20'1818.1
2014-Nov-23 11:33S 32°46' E 152°35'1616.5
2014-Nov-23 10:33S 32°33' E 152°48'1514.6
2014-Nov-23 09:33S 32°20' E 152°55'1816.0
2014-Nov-23 08:24S 32°02' E 153°00'1416.4
2014-Nov-23 07:33S 31°49' E 153°06'3618.1
2014-Nov-23 05:34S 31°14' E 153°17'2020.3
2014-Nov-23 04:33S 30°54' E 153°23'2120.7
2014-Nov-23 03:34S 30°34' E 153°28'9220.9
2014-Nov-22 23:09S 29°04' E 153°49'1220.5
2014-Nov-22 22:34S 28°52' E 153°51'3919.5
2014-Nov-22 20:34S 28°13' E 153°52'1919.4
2014-Nov-22 19:34S 27°53' E 153°51'2221.9
2014-Nov-22 18:34S 27°32' E 153°50'2121.3
2014-Nov-22 17:33S 27°11' E 153°45'2020.4
2014-Nov-22 16:34S 26°54' E 153°32'1919.3
2014-Nov-22 15:34S 26°45' E 153°13'10 9.9
2014-Nov-22 14:34S 26°55' E 153°11'1716.7
2014-Nov-22 13:34S 27°09' E 153°21'1514.5
2014-Nov-22 12:33S 27°20' E 153°11'8 7.7
2014-Nov-22 11:33S 27°27' E 153°06'2 1.8
2014-Nov-22 10:28S 27°26' E 153°04'0 0.0
2014-Nov-22 09:31S 27°26' E 153°04'0 0.0
2014-Nov-22 03:31S 27°26' E 153°04'0 0.0
2014-Nov-22 02:19S 27°26' E 153°04'0 0.0
2014-Nov-22 01:29S 27°26' E 153°04'0 0.0
2014-Nov-22 00:29S 27°26' E 153°04'0 0.0
2014-Nov-21 23:29S 27°26' E 153°04'0 0.0
2014-Nov-21 22:32S 27°26' E 153°04'0 0.0
2014-Nov-21 21:23S 27°26' E 153°04'0 0.0
2014-Nov-21 20:32S 27°26' E 153°04'2 1.9
2014-Nov-21 19:33S 27°27' E 153°06'7 7.4
2014-Nov-21 18:34S 27°21' E 153°11'1312.7
2014-Nov-21 17:33S 27°11' E 153°21'1212.0
2014-Nov-21 16:33S 27°01' E 153°15'1212.3
2014-Nov-21 15:33S 26°49' E 153°09'1212.4
2014-Nov-21 14:33S 26°38' E 153°15'1514.5
2014-Nov-21 13:33S 26°24' E 153°21'1515.0
2014-Nov-21 12:33S 26°10' E 153°24'1515.0
2014-Nov-21 11:33S 25°55' E 153°27'1814.8
2014-Nov-21 10:19S 25°37' E 153°30'  
2014-Nov-16 14:17S 25°52' E 153°27'1517.0
2014-Nov-16 13:24S 26°06' E 153°25'1416.9
2014-Nov-16 12:33S 26°20' E 153°22'1616.5
2014-Nov-16 11:34S 26°36' E 153°16'1212.2
2014-Nov-16 10:33S 26°47' E 153°11'1414.1
2014-Nov-16 09:33S 27°01' E 153°15'1414.4
2014-Nov-16 08:33S 27°15' E 153°19'1312.7
2014-Nov-16 07:33S 27°24' E 153°09'5 4.9
2014-Nov-16 06:34S 27°27' E 153°04'0 0.0
2014-Nov-16 05:29S 27°26' E 153°04'0 0.0
2014-Nov-16 04:32S 27°26' E 153°04'0 0.0
2014-Nov-16 03:23S 27°26' E 153°04'0 0.0
2014-Nov-16 01:20S 27°26' E 153°04'0 0.0
2014-Nov-15 23:08S 27°26' E 153°04'0 0.0
2014-Nov-15 22:20S 27°26' E 153°04'119 8.4
2014-Nov-15 08:10S 25°30' E 153°32'711.8
2014-Nov-15 07:33S 25°23' E 153°33'  
Track history (hours):
 
Tides and Currents Weather Stations Pressure Air Temp Water Temp Dewpoint Dewpoint Depression Visibility Wind Speed Wind Dir Waves Ship Positions

Pacific Dawn

Last reported at 2014-Nov-23 15:33 UTC. Time now 2014-Nov-26 05:11 UTC.
Position S 33°37' E 151°37'.

Length 245 m; draft 8.4 m.

Type: Passenger vessel. MMSI: 235059368.

Date/timePositionNaut miles runAvg speedWind from/ knotsBaromVisibWave heightAir tempDewpointWater temp
2014-Nov-23 15:33S 33°37' E 151°37'1717.5
2014-Nov-23 14:33S 33°24' E 151°51'1717.3
2014-Nov-23 13:33S 33°12' E 152°06'1817.9
2014-Nov-23 12:33S 32°58' E 152°20'1818.1
2014-Nov-23 11:33S 32°46' E 152°35'1616.5
2014-Nov-23 10:33S 32°33' E 152°48'1514.6
2014-Nov-23 09:33S 32°20' E 152°55'1816.0
2014-Nov-23 08:24S 32°02' E 153°00'1416.4
2014-Nov-23 07:33S 31°49' E 153°06'3618.1
2014-Nov-23 05:34S 31°14' E 153°17'2020.3
2014-Nov-23 04:33S 30°54' E 153°23'2120.7
2014-Nov-23 03:34S 30°34' E 153°28'9220.9
2014-Nov-22 23:09S 29°04' E 153°49'1220.5
2014-Nov-22 22:34S 28°52' E 153°51'3919.5
2014-Nov-22 20:34S 28°13' E 153°52'1919.4
2014-Nov-22 19:34S 27°53' E 153°51'2221.9
2014-Nov-22 18:34S 27°32' E 153°50'2121.3
2014-Nov-22 17:33S 27°11' E 153°45'2020.4
2014-Nov-22 16:34S 26°54' E 153°32'1919.3
2014-Nov-22 15:34S 26°45' E 153°13'10 9.9
2014-Nov-22 14:34S 26°55' E 153°11'1716.7
2014-Nov-22 13:34S 27°09' E 153°21'1514.5
2014-Nov-22 12:33S 27°20' E 153°11'8 7.7
2014-Nov-22 11:33S 27°27' E 153°06'2 1.8
2014-Nov-22 10:28S 27°26' E 153°04'0 0.0
2014-Nov-22 09:31S 27°26' E 153°04'0 0.0
2014-Nov-22 03:31S 27°26' E 153°04'0 0.0
2014-Nov-22 02:19S 27°26' E 153°04'0 0.0
2014-Nov-22 01:29S 27°26' E 153°04'0 0.0
2014-Nov-22 00:29S 27°26' E 153°04'0 0.0
2014-Nov-21 23:29S 27°26' E 153°04'0 0.0
2014-Nov-21 22:32S 27°26' E 153°04'0 0.0
2014-Nov-21 21:23S 27°26' E 153°04'0 0.0
2014-Nov-21 20:32S 27°26' E 153°04'2 1.9
2014-Nov-21 19:33S 27°27' E 153°06'7 7.4
2014-Nov-21 18:34S 27°21' E 153°11'1312.7
2014-Nov-21 17:33S 27°11' E 153°21'1212.0
2014-Nov-21 16:33S 27°01' E 153°15'1212.3
2014-Nov-21 15:33S 26°49' E 153°09'1212.4
2014-Nov-21 14:33S 26°38' E 153°15'1514.5
2014-Nov-21 13:33S 26°24' E 153°21'1515.0
2014-Nov-21 12:33S 26°10' E 153°24'1515.0
2014-Nov-21 11:33S 25°55' E 153°27'1814.8
2014-Nov-21 10:19S 25°37' E 153°30'  
2014-Nov-16 14:17S 25°52' E 153°27'1517.0
2014-Nov-16 13:24S 26°06' E 153°25'1416.9
2014-Nov-16 12:33S 26°20' E 153°22'1616.5
2014-Nov-16 11:34S 26°36' E 153°16'1212.2
2014-Nov-16 10:33S 26°47' E 153°11'1414.1
2014-Nov-16 09:33S 27°01' E 153°15'1414.4
2014-Nov-16 08:33S 27°15' E 153°19'1312.7
2014-Nov-16 07:33S 27°24' E 153°09'5 4.9
2014-Nov-16 06:34S 27°27' E 153°04'0 0.0
2014-Nov-16 05:29S 27°26' E 153°04'0 0.0
2014-Nov-16 04:32S 27°26' E 153°04'0 0.0
2014-Nov-16 03:23S 27°26' E 153°04'0 0.0
2014-Nov-16 01:20S 27°26' E 153°04'0 0.0
2014-Nov-15 23:08S 27°26' E 153°04'0 0.0
2014-Nov-15 22:20S 27°26' E 153°04'119 8.4
2014-Nov-15 08:10S 25°30' E 153°32'711.8
2014-Nov-15 07:33S 25°23' E 153°33'  

Dump ship's entire track history